Time;durP1;ratioP1;P1;durP2;ratioP2;P2;SDS_P1;SDS_P2;PMS_P1;PMS_P2;Temp;Humidity;BMP_temperature;BMP_pressure;BME280_temperature;BME280_humidity;BME280_pressure;Samples;Min_cycle;Max_cycle;Signal;HPM_P1;HPM_P2
2022/12/25 00:00:23;;;;;;;9.75;7.00;;;;;;;21.18;45.82;95239.78;5067611;28;20045;-66
2022/12/25 00:02:48;;;;;;;9.57;6.35;;;;;;;20.70;45.96;95167.06;5061646;28;20425;-66
2022/12/25 00:05:14;;;;;;;8.10;6.10;;;;;;;20.99;45.74;95221.72;5046854;28;20569;-66
2022/12/25 00:07:39;;;;;;;8.18;6.20;;;;;;;21.16;45.71;95257.81;5013019;28;20509;-66
2022/12/25 00:10:05;;;;;;;11.30;7.13;;;;;;;21.18;45.84;95266.19;5042251;28;20057;-68
2022/12/25 00:12:31;;;;;;;10.02;6.82;;;;;;;20.30;45.73;95134.03;5035078;28;20439;-64
2022/12/25 00:14:56;;;;;;;9.60;6.85;;;;;;;20.72;45.77;95186.31;5066336;28;20056;-66
2022/12/25 00:17:22;;;;;;;8.55;6.88;;;;;;;20.92;45.70;95232.28;5066536;28;20025;-66
2022/12/25 00:19:47;;;;;;;8.75;6.53;;;;;;;21.08;45.76;95254.81;5065925;28;21172;-67
2022/12/25 00:22:12;;;;;;;9.48;6.57;;;;;;;20.94;45.79;95232.53;5052006;28;20512;-67
2022/12/25 00:24:38;;;;;;;9.95;6.13;;;;;;;21.12;45.88;95266.19;5055533;28;20460;-67
2022/12/25 00:27:03;;;;;;;9.50;6.78;;;;;;;20.47;45.75;95168.16;5030226;28;20406;-66
2022/12/25 00:29:29;;;;;;;8.82;6.70;;;;;;;20.86;45.92;95234.25;5065663;28;20404;-67
2022/12/25 00:31:54;;;;;;;9.75;6.18;;;;;;;21.12;45.73;95274.34;5046378;28;20413;-68
2022/12/25 00:34:20;;;;;;;8.23;6.38;;;;;;;21.11;45.87;95278.28;5062061;28;20155;-66
2022/12/25 00:36:45;;;;;;;9.50;6.68;;;;;;;20.96;45.88;95245.13;5050073;28;20072;-65
2022/12/25 00:39:11;;;;;;;7.80;5.63;;;;;;;21.06;45.79;95276.28;5049307;28;20037;-64
2022/12/25 00:44:20;;;;;;;8.85;6.13;;;;;;;21.11;45.67;95283.69;5020401;28;20071;-66
2022/12/25 00:46:46;;;;;;;8.90;5.70;;;;;;;20.65;45.75;95220.03;5044926;28;20048;-67
2022/12/25 00:49:11;;;;;;;7.38;5.90;;;;;;;21.08;46.00;95284.69;5060344;28;20531;-68
2022/12/25 00:51:37;;;;;;;7.22;5.70;;;;;;;21.08;45.66;95292.81;5044484;28;20144;-67
2022/12/25 00:54:02;;;;;;;8.45;5.85;;;;;;;21.08;45.88;95292.81;5046507;28;20049;-67
2022/12/25 00:56:28;;;;;;;7.65;5.65;;;;;;;21.07;45.69;95288.63;5027345;28;20028;-67
2022/12/25 00:58:53;;;;;;;8.32;5.93;;;;;;;21.08;45.81;95290.09;5066509;28;20082;-66
2022/12/25 01:01:19;;;;;;;6.80;5.32;;;;;;;21.07;46.04;95288.63;5049979;28;21210;-66
2022/12/25 01:03:44;;;;;;;8.23;5.65;;;;;;;20.99;45.99;95265.88;5045530;28;20045;-65
2022/12/25 01:06:11;;;;;;;8.50;6.15;;;;;;;21.03;45.81;95279.97;5024874;28;20069;-66
2022/12/25 01:08:38;;;;;;;8.40;5.72;;;;;;;20.27;45.92;95157.47;5031150;28;20067;-66
2022/12/25 01:11:07;;;;;;;7.95;5.63;;;;;;;21.05;45.83;95268.63;5053344;28;20501;-68
2022/12/25 01:13:33;;;;;;;7.88;5.72;;;;;;;21.05;45.71;95274.78;5044937;28;20044;-65
2022/12/25 01:16:05;;;;;;;7.28;5.38;;;;;;;21.04;45.85;95278.72;5052368;28;20542;-66
2022/12/25 01:18:30;;;;;;;7.18;6.05;;;;;;;21.04;45.82;95284.16;5028776;28;20041;-66
2022/12/25 01:20:56;;;;;;;8.00;5.85;;;;;;;21.03;45.85;95288.13;5049215;28;20041;-66
2022/12/25 01:23:21;;;;;;;7.78;6.07;;;;;;;20.96;45.85;95272.28;5048037;28;20029;-67
2022/12/25 01:25:46;;;;;;;7.95;5.88;;;;;;;21.02;45.77;95281.19;5027338;28;20433;-64
2022/12/25 01:28:12;;;;;;;8.13;6.07;;;;;;;20.32;45.71;95181.16;5040321;28;20044;-67
2022/12/25 01:30:38;;;;;;;7.55;4.97;;;;;;;21.01;45.93;95285.13;5046360;28;20048;-65
2022/12/25 01:33:03;;;;;;;7.53;5.30;;;;;;;21.04;45.92;95288.84;5064876;28;20044;-68
2022/12/25 01:35:29;;;;;;;7.30;5.55;;;;;;;20.15;45.59;95166.78;5064593;28;20028;-66
2022/12/25 01:37:54;;;;;;;7.75;5.68;;;;;;;21.02;45.74;95275.03;5047340;28;20028;-67
2022/12/25 01:40:19;;;;;;;6.85;5.30;;;;;;;21.00;45.62;95324.38;5049430;28;20048;-67
2022/12/25 01:42:45;;;;;;;7.38;5.68;;;;;;;20.81;45.59;95253.97;5055497;28;20615;-67
2022/12/25 01:45:36;;;;;;;7.45;5.00;;;;;;;20.99;45.72;95279.44;5030027;28;20442;-65
2022/12/25 01:48:06;;;;;;;7.45;5.60;;;;;;;21.00;45.77;95294.53;5059619;28;20106;-64
2022/12/25 01:50:32;;;;;;;6.57;4.70;;;;;;;21.00;45.94;95278.22;5011012;28;20040;-68
2022/12/25 01:52:57;;;;;;;7.05;5.30;;;;;;;20.85;45.62;95265.31;5065414;28;20028;-67
2022/12/25 01:55:23;;;;;;;8.50;5.50;;;;;;;20.91;45.94;95269.56;5063223;28;20051;-66
2022/12/25 01:57:48;;;;;;;8.07;5.13;;;;;;;20.84;45.79;95253.00;5035074;28;20524;-67
2022/12/25 02:00:15;;;;;;;6.30;4.97;;;;;;;20.98;45.85;95283.41;5050513;28;20041;-67
2022/12/25 02:02:40;;;;;;;6.13;4.82;;;;;;;20.85;45.80;95260.66;5043476;28;20531;-66
2022/12/25 02:05:29;;;;;;;7.45;5.25;;;;;;;20.98;45.88;95291.56;5044544;28;20037;-66
2022/12/25 02:07:55;;;;;;;6.25;5.07;;;;;;;20.98;45.57;95299.72;5055656;28;20048;-67
2022/12/25 02:10:21;;;;;;;6.82;5.10;;;;;;;20.97;45.82;95295.50;5045343;28;20109;-63
2022/12/25 02:12:46;;;;;;;6.47;4.82;;;;;;;20.96;45.78;95310.28;5042268;28;20551;-67
2022/12/25 02:15:20;;;;;;;6.63;4.50;;;;;;;20.96;45.84;95296.72;5022253;28;21848;-68
2022/12/25 02:18:09;;;;;;;6.93;4.93;;;;;;;20.85;45.80;95281.59;5022122;28;20063;-65
2022/12/25 02:20:53;;;;;;;7.60;5.00;;;;;;;19.55;45.68;95087.00;5031256;28;20118;-68
2022/12/25 02:23:40;;;;;;;6.30;4.82;;;;;;;20.96;45.88;95295.25;5062931;28;20446;-65
2022/12/25 02:26:21;;;;;;;6.38;4.55;;;;;;;20.95;45.70;95301.91;5042958;28;20048;-66
2022/12/25 02:28:51;;;;;;;5.82;4.80;;;;;;;20.94;46.00;95294.97;5062337;28;20045;-64
2022/12/25 02:31:20;;;;;;;7.00;4.97;;;;;;;20.80;45.64;95285.03;5062935;28;20589;-67
2022/12/25 02:34:02;;;;;;;6.43;5.17;;;;;;;19.13;45.76;95027.41;5015040;28;20049;-67
2022/12/25 02:36:40;;;;;;;7.88;4.85;;;;;;;20.78;45.80;95276.66;5015123;28;20356;-66
2022/12/25 02:41:57;;;;;;;6.45;4.55;;;;;;;20.92;45.86;95308.28;5048548;28;20063;-67
2022/12/25 03:06:41;;;;;;;7.90;4.75;;;;;;;20.91;45.63;95285.09;5033117;28;20108;-67
2022/12/25 03:06:42;;;;;;;5.63;4.00;;;;;;;19.93;45.66;95165.16;5035091;28;20051;-65
2022/12/25 03:12:24;;;;;;;5.50;4.10;;;;;;;20.45;45.64;95249.28;5022834;28;20170;-65
2022/12/25 03:17:33;;;;;;;5.60;4.47;;;;;;;20.85;45.78;95316.88;5047973;28;20090;-67
2022/12/25 03:28:31;;;;;;;6.28;4.35;;;;;;;19.94;45.68;95210.75;4972495;28;20065;-67
2022/12/25 03:31:11;;;;;;;6.10;4.32;;;;;;;20.84;45.98;95329.00;5026300;28;20136;-66
2022/12/25 03:43:41;;;;;;;6.55;4.40;;;;;;;20.76;45.65;95325.22;5035993;28;20132;-67
2022/12/25 04:37:51;;;;;;;6.88;4.13;;;;;;;20.65;45.59;95360.41;5062503;28;20135;-66
2022/12/25 04:40:16;;;;;;;6.82;4.13;;;;;;;20.79;45.70;95395.56;5049758;28;20045;-67
2022/12/25 04:42:42;;;;;;;5.97;3.80;;;;;;;20.56;45.71;95363.28;5006525;28;20673;-64
2022/12/25 04:45:08;;;;;;;7.40;3.97;;;;;;;20.79;45.68;95402.94;5045730;28;20741;-67
2022/12/25 04:47:33;;;;;;;9.50;4.53;;;;;;;21.26;44.85;95398.31;5045563;28;20044;-68
2022/12/25 04:49:59;;;;;;;6.97;3.65;;;;;;;21.51;44.39;95408.38;5026817;28;20044;-64
2022/12/25 04:52:24;;;;;;;5.70;3.58;;;;;;;21.70;44.11;95387.69;5046109;28;20041;-66
2022/12/25 04:54:49;;;;;;;6.20;3.35;;;;;;;21.20;43.72;95302.50;5059970;28;20503;-64
2022/12/25 04:57:15;;;;;;;5.88;3.60;;;;;;;21.09;43.58;95285.41;5049455;28;20508;-67
2022/12/25 04:59:41;;;;;;;5.85;3.35;;;;;;;21.91;43.36;95395.16;5029749;28;20125;-66
2022/12/25 05:02:06;;;;;;;6.05;3.53;;;;;;;21.38;43.60;95302.09;5049941;28;20059;-67
2022/12/25 05:04:32;;;;;;;7.07;3.53;;;;;;;21.62;43.22;95333.06;5049789;28;20041;-66
2022/12/25 05:06:57;;;;;;;5.60;3.63;;;;;;;22.10;43.12;95405.09;5047454;28;20497;-66
2022/12/25 05:09:24;;;;;;;5.82;3.17;;;;;;;22.14;43.24;95399.44;5046189;28;20094;-67
2022/12/25 05:11:49;;;;;;;5.95;3.10;;;;;;;22.15;43.17;95401.69;5044716;28;20996;-64
2022/12/25 05:14:15;;;;;;;5.05;3.33;;;;;;;22.19;43.01;95396.72;5066735;28;20040;-67
2022/12/25 05:16:40;;;;;;;5.57;3.30;;;;;;;22.26;42.85;95401.72;5065087;28;20602;-65
2022/12/25 05:19:06;;;;;;;9.75;3.00;;;;;;;22.38;42.70;95397.03;5041506;28;20482;-65
2022/12/25 05:21:31;;;;;;;6.70;3.75;;;;;;;22.38;42.91;95414.09;5046746;28;20460;-68
2022/12/25 05:23:57;;;;;;;7.95;3.60;;;;;;;22.00;42.64;95346.75;5046060;28;20033;-69
2022/12/25 05:26:24;;;;;;;6.85;3.10;;;;;;;22.34;42.47;95385.66;5060481;28;20570;-66
2022/12/25 05:28:49;;;;;;;8.93;3.58;;;;;;;22.50;42.56;95426.50;5042685;28;20056;-66
2022/12/25 05:31:15;;;;;;;11.93;3.50;;;;;;;22.54;42.73;95410.63;5049841;28;20570;-62
2022/12/25 05:33:41;;;;;;;9.48;3.50;;;;;;;22.57;42.47;95415.09;5036745;28;20045;-64
2022/12/25 05:36:08;;;;;;;8.13;2.70;;;;;;;22.50;41.87;95410.16;5064892;28;20515;-62
2022/12/25 05:38:34;;;;;;;9.85;3.20;;;;;;;22.42;42.19;95420.06;5063654;28;20038;-64
2022/12/25 05:40:59;;;;;;;8.30;3.00;;;;;;;22.44;42.86;95417.56;5064493;28;20040;-64
2022/12/25 05:43:25;;;;;;;9.60;3.50;;;;;;;22.60;42.59;95411.38;5029005;28;20558;-67
2022/12/25 05:45:51;;;;;;;7.45;2.97;;;;;;;22.60;42.68;95425.00;5064253;28;20106;-63
2022/12/25 05:48:16;;;;;;;8.98;3.30;;;;;;;22.58;42.52;95413.88;5064749;28;20063;-66
2022/12/25 05:50:42;;;;;;;9.85;3.40;;;;;;;22.63;42.61;95418.56;5058691;28;20036;-64
2022/12/25 05:53:08;;;;;;;7.95;3.15;;;;;;;22.63;42.58;95407.69;5047291;28;20036;-67
2022/12/25 05:55:34;;;;;;;10.32;3.38;;;;;;;21.04;42.23;95164.69;5046572;28;20044;-67
2022/12/25 05:58:00;;;;;;;7.78;3.00;;;;;;;22.17;42.42;95317.59;5051605;28;20431;-64
2022/12/25 06:00:25;;;;;;;5.60;2.60;;;;;;;22.40;42.20;95361.91;5009750;28;20582;-66
2022/12/25 06:02:51;;;;;;;6.10;2.90;;;;;;;22.74;42.48;95418.59;5012967;28;20048;-65
2022/12/25 06:05:16;;;;;;;8.13;3.20;;;;;;;22.07;42.14;95291.88;5046391;28;20086;-65
2022/12/25 06:07:42;;;;;;;6.22;3.38;;;;;;;23.01;42.62;95422.06;5064592;28;20052;-67
2022/12/25 06:10:07;;;;;;;5.95;3.17;;;;;;;23.37;41.91;95437.38;5063628;28;20060;-67
2022/12/25 06:12:33;;;;;;;6.93;3.08;;;;;;;23.52;41.76;95432.38;5064973;28;20029;-68
2022/12/25 06:14:58;;;;;;;5.30;3.05;;;;;;;23.38;42.07;95411.59;5045207;28;20566;-66
2022/12/25 06:17:25;;;;;;;5.53;2.42;;;;;;;23.57;41.83;95440.56;5047227;28;20029;-65
2022/12/25 06:19:50;;;;;;;8.70;3.10;;;;;;;23.68;41.24;95450.72;5060856;28;20101;-66
2022/12/25 06:22:16;;;;;;;6.03;2.60;;;;;;;23.64;41.11;95447.50;5045492;28;20386;-66
2022/12/25 06:24:41;;;;;;;5.63;2.80;;;;;;;23.63;41.13;95443.25;5063780;28;20040;-65
2022/12/25 06:27:06;;;;;;;6.53;3.03;;;;;;;23.02;40.82;95332.94;5044706;28;20506;-65
2022/12/25 06:29:32;;;;;;;7.68;2.92;;;;;;;23.96;41.27;95455.56;5063954;28;20032;-68
2022/12/25 06:31:57;;;;;;;7.78;3.00;;;;;;;24.10;40.24;95459.97;5064462;28;20083;-68
2022/12/25 06:34:23;;;;;;;4.95;2.95;;;;;;;23.93;40.37;95423.84;5046446;28;20063;-68
2022/12/25 06:36:48;;;;;;;5.40;2.70;;;;;;;24.18;40.12;95476.53;5029609;28;20056;-65
2022/12/25 06:39:14;;;;;;;4.43;2.90;;;;;;;24.21;40.54;95453.72;5057643;28;20429;-67
2022/12/25 06:41:39;;;;;;;4.80;2.63;;;;;;;24.26;40.08;95467.34;5045476;28;20036;-65
2022/12/25 06:44:05;;;;;;;5.88;2.50;;;;;;;23.66;40.22;95376.84;5064437;28;20512;-68
2022/12/25 06:46:31;;;;;;;6.00;2.88;;;;;;;23.90;40.00;95394.84;5011617;28;20528;-68
2022/12/25 06:48:57;;;;;;;6.13;2.90;;;;;;;24.56;39.52;95487.31;5038302;28;20508;-66
2022/12/25 06:51:24;;;;;;;5.05;2.53;;;;;;;23.50;39.43;95331.28;5056483;28;20041;-67
2022/12/25 06:53:50;;;;;;;4.38;2.47;;;;;;;23.25;39.47;95288.75;4996161;28;20495;-65
2022/12/25 06:56:17;;;;;;;4.78;3.10;;;;;;;24.59;39.59;95483.56;5013074;28;20500;-66
2022/12/25 06:58:50;;;;;;;4.75;2.55;;;;;;;24.69;39.57;95509.31;5007650;28;20045;-66
2022/12/25 07:01:29;;;;;;;4.68;2.47;;;;;;;24.82;39.20;95502.03;5036019;28;20047;-65
2022/12/25 07:03:56;;;;;;;5.15;2.47;;;;;;;24.66;39.01;95483.00;5040835;28;20072;-64
2022/12/25 07:06:21;;;;;;;3.70;2.40;;;;;;;24.76;39.24;95497.84;5007609;28;20136;-65
2022/12/25 07:08:47;;;;;;;4.95;2.50;;;;;;;24.79;39.31;95507.78;5019923;28;20068;-66
2022/12/25 07:11:12;;;;;;;4.55;2.60;;;;;;;24.64;39.82;95507.38;5026582;28;20094;-70
2022/12/25 07:13:38;;;;;;;4.85;2.45;;;;;;;24.43;39.70;95487.13;5045209;28;20040;-66
2022/12/25 07:16:04;;;;;;;4.13;2.42;;;;;;;24.63;39.21;95514.06;5038963;28;20041;-66
2022/12/25 07:18:29;;;;;;;6.05;2.42;;;;;;;24.68;39.46;95513.28;5034912;28;20037;-65
2022/12/25 07:20:55;;;;;;;4.95;2.20;;;;;;;24.24;39.11;95439.06;5037111;28;20178;-65
2022/12/25 07:23:21;;;;;;;4.18;2.50;;;;;;;24.73;39.43;95531.66;5049028;28;20037;-68
2022/12/25 07:25:57;;;;;;;5.13;2.40;;;;;;;24.82;39.10;95529.34;5030084;28;20987;-68
2022/12/25 07:28:23;;;;;;;5.35;2.90;;;;;;;24.84;39.26;95535.03;5005591;28;20038;-68
2022/12/25 07:30:48;;;;;;;4.07;2.20;;;;;;;24.77;39.09;95500.09;5029904;28;20052;-67
2022/12/25 07:33:14;;;;;;;4.45;2.45;;;;;;;25.11;38.60;95518.50;5016424;28;20077;-66
2022/12/25 07:35:40;;;;;;;5.35;2.45;;;;;;;25.18;38.56;95537.06;5066819;28;20041;-67
2022/12/25 07:38:05;;;;;;;4.22;2.53;;;;;;;25.10;38.49;95522.47;5068376;28;20084;-67
2022/12/25 07:40:30;;;;;;;4.80;2.40;;;;;;;25.15;38.47;95535.34;5049198;28;20413;-66
2022/12/25 07:42:56;;;;;;;3.75;2.40;;;;;;;25.16;38.67;95542.31;5067085;28;20514;-66
2022/12/25 07:45:21;;;;;;;4.45;2.30;;;;;;;25.28;38.47;95554.66;5034529;28;20064;-66
2022/12/25 07:47:47;;;;;;;5.15;2.78;;;;;;;24.93;38.49;95502.69;5061537;28;20021;-65
2022/12/25 07:50:12;;;;;;;4.32;2.45;;;;;;;25.26;38.38;95562.63;5011089;28;20028;-66
2022/12/25 07:52:38;;;;;;;4.32;2.30;;;;;;;25.16;38.19;95525.91;5027244;28;20156;-67
2022/12/25 07:55:03;;;;;;;5.38;2.00;;;;;;;25.10;38.88;95560.75;5042797;28;20516;-67
2022/12/25 07:57:29;;;;;;;4.35;2.22;;;;;;;25.07;38.89;95583.63;5044883;28;20083;-66
2022/12/25 07:59:54;;;;;;;4.38;2.33;;;;;;;24.49;38.97;95457.81;5050740;28;20048;-67
2022/12/25 08:02:26;;;;;;;4.70;2.40;;;;;;;24.90;38.83;95527.53;5067012;28;20112;-65
2022/12/25 08:04:52;;;;;;;4.93;2.50;;;;;;;24.92;39.09;95549.66;5046867;28;20131;-69
2022/12/25 08:07:18;;;;;;;4.07;2.42;;;;;;;25.13;39.16;95576.13;5027754;28;20063;-68
2022/12/25 08:09:43;;;;;;;5.75;3.00;;;;;;;24.42;39.13;95463.78;5046509;28;20045;-68
2022/12/25 08:12:08;;;;;;;4.43;2.35;;;;;;;25.41;38.81;95584.84;5024934;28;20049;-67
2022/12/25 08:14:34;;;;;;;4.45;2.30;;;;;;;25.28;39.18;95592.91;5044893;28;20036;-68
2022/12/25 08:16:59;;;;;;;4.30;2.25;;;;;;;25.21;39.29;95582.53;5046114;28;20040;-67
2022/12/25 08:19:25;;;;;;;5.38;2.40;;;;;;;25.35;39.05;95570.47;5046348;28;20049;-67
2022/12/25 08:21:50;;;;;;;4.35;2.65;;;;;;;24.99;39.37;95505.41;5023392;28;20056;-67
2022/12/25 08:24:16;;;;;;;4.72;2.25;;;;;;;25.40;39.12;95577.94;5066883;28;20048;-67
2022/12/25 08:26:41;;;;;;;6.13;2.45;;;;;;;25.38;39.17;95580.41;5065576;28;20032;-67
2022/12/25 08:29:06;;;;;;;3.95;2.08;;;;;;;25.36;39.42;95567.25;5067421;28;20040;-69
2022/12/25 08:31:33;;;;;;;4.68;2.45;;;;;;;25.48;38.87;95567.91;5048703;28;20441;-69
2022/12/25 08:34:00;;;;;;;5.82;2.58;;;;;;;25.27;38.91;95547.69;5040625;28;20045;-63
2022/12/25 08:36:26;;;;;;;4.53;2.40;;;;;;;25.12;39.40;95574.63;5028793;28;20044;-64
2022/12/25 08:38:51;;;;;;;5.03;2.15;;;;;;;25.18;39.75;95572.59;5049834;28;20037;-67
2022/12/25 08:41:17;;;;;;;6.55;2.75;;;;;;;24.43;39.49;95462.56;5066887;28;20044;-66
2022/12/25 08:43:42;;;;;;;7.88;3.13;;;;;;;24.80;39.99;95570.09;5027399;28;20049;-66
2022/12/25 08:46:08;;;;;;;5.78;2.55;;;;;;;24.87;40.55;95581.22;5045618;28;20072;-67
2022/12/25 08:48:33;;;;;;;7.35;3.08;;;;;;;24.73;40.39;95583.53;5027596;28;20041;-66
2022/12/25 08:50:59;;;;;;;7.82;3.08;;;;;;;24.48;40.12;95527.31;5032457;28;20057;-65
2022/12/25 08:53:24;;;;;;;6.50;3.03;;;;;;;24.87;39.93;95586.69;5065088;28;20029;-66
2022/12/25 08:55:59;;;;;;;5.90;3.17;;;;;;;24.70;40.37;95574.34;5029301;28;20102;-65
2022/12/25 08:58:25;;;;;;;8.10;2.70;;;;;;;24.48;40.86;95581.91;5045822;28;20514;-66
2022/12/25 09:00:50;;;;;;;7.22;3.10;;;;;;;24.60;40.89;95577.88;5047090;28;20052;-66
2022/12/25 09:03:16;;;;;;;4.00;2.60;;;;;;;24.46;40.50;95562.56;5064324;28;20148;-65
2022/12/25 09:05:41;;;;;;;5.60;3.00;;;;;;;24.53;40.61;95570.97;5026936;28;20032;-66
2022/12/25 09:08:07;;;;;;;5.97;2.72;;;;;;;24.57;40.84;95606.19;5060419;28;20035;-66
2022/12/25 09:10:36;;;;;;;5.78;3.22;;;;;;;24.49;41.32;95600.50;5042568;28;20045;-67
2022/12/25 09:13:02;;;;;;;5.03;2.95;;;;;;;24.47;41.46;95591.38;5026622;28;20139;-68
2022/12/25 09:15:27;;;;;;;4.80;3.25;;;;;;;24.44;41.59;95597.81;5058263;28;20185;-66
2022/12/25 09:17:52;;;;;;;7.35;3.45;;;;;;;24.55;41.35;95603.22;5044048;28;20069;-70
2022/12/25 09:20:18;;;;;;;4.72;3.00;;;;;;;24.46;41.31;95570.75;5045573;28;20036;-66
2022/12/25 09:22:43;;;;;;;5.43;2.55;;;;;;;24.51;41.62;95569.97;5016852;28;21104;-65
2022/12/25 09:25:09;;;;;;;4.72;2.97;;;;;;;24.48;41.61;95592.81;5045748;28;20100;-66
2022/12/25 09:27:34;;;;;;;5.07;3.10;;;;;;;24.50;42.35;95591.09;5035857;28;20044;-70
2022/12/25 09:30:00;;;;;;;18.50;4.63;;;;;;;24.73;41.93;95586.28;5036532;28;20389;-67
2022/12/25 09:32:25;;;;;;;10.75;3.92;;;;;;;24.31;42.77;95548.44;5045112;28;20062;-66
2022/12/25 09:34:51;;;;;;;9.48;2.80;;;;;;;23.82;40.36;95553.31;5009102;28;20425;-65
2022/12/25 09:37:16;;;;;;;5.45;2.20;;;;;;;23.05;38.99;95569.66;5027043;28;20504;-64
2022/12/25 09:39:41;;;;;;;4.43;2.30;;;;;;;22.72;37.85;95589.84;5026179;28;20033;-64
2022/12/25 09:42:15;;;;;;;3.42;1.67;;;;;;;22.20;37.14;95577.75;5049609;28;20037;-66
2022/12/25 09:44:42;;;;;;;4.65;1.70;;;;;;;22.34;37.58;95560.53;5036398;28;20064;-64
2022/12/25 09:47:13;;;;;;;3.90;1.63;;;;;;;22.08;36.39;95576.22;5046941;28;20060;-65
2022/12/25 09:50:11;;;;;;;2.78;1.55;;;;;;;21.73;36.43;95579.69;5045947;28;20109;-63
2022/12/25 09:52:40;;;;;;;4.03;1.80;;;;;;;21.78;36.49;95578.97;5043704;28;20116;-65
2022/12/25 09:55:11;;;;;;;8.98;2.83;;;;;;;22.02;36.72;95589.03;5047175;28;20056;-66
2022/12/25 09:57:37;;;;;;;10.05;3.25;;;;;;;21.80;36.84;95533.03;5062717;28;20064;-65
2022/12/25 10:00:03;;;;;;;6.82;1.95;;;;;;;21.82;36.32;95563.19;5048706;28;20043;-63
2022/12/25 10:02:40;;;;;;;6.43;2.28;;;;;;;22.04;35.47;95567.53;5058510;28;20579;-65
2022/12/25 10:05:08;;;;;;;5.90;2.25;;;;;;;21.84;35.46;95560.72;5057765;28;20032;-67
2022/12/25 10:08:07;;;;;;;8.13;2.90;;;;;;;21.88;35.11;95572.13;5054667;28;20048;-66
2022/12/25 10:11:08;;;;;;;5.53;1.48;;;;;;;21.77;34.98;95574.78;5034207;28;20041;-63
2022/12/25 10:13:57;;;;;;;2.50;1.40;;;;;;;20.72;34.78;95453.00;5041003;28;20041;-64
2022/12/25 10:16:36;;;;;;;2.95;1.20;;;;;;;21.89;34.43;95568.19;5042740;28;20475;-64
2022/12/25 10:19:21;;;;;;;2.97;1.20;;;;;;;21.58;34.33;95503.00;5051595;28;20548;-64
2022/12/25 10:21:48;;;;;;;3.25;1.20;;;;;;;21.57;34.75;95574.91;5037497;28;20461;-64
2022/12/25 10:24:27;;;;;;;3.25;1.30;;;;;;;21.46;35.05;95553.84;5047761;28;20053;-65
2022/12/25 10:26:52;;;;;;;2.08;1.08;;;;;;;21.36;34.86;95562.63;5034159;28;20041;-64
2022/12/25 10:29:18;;;;;;;3.35;1.48;;;;;;;21.53;35.26;95555.34;5064407;28;20093;-62
2022/12/25 10:31:48;;;;;;;5.68;1.83;;;;;;;21.93;35.91;95570.19;5063221;28;20048;-63
2022/12/25 10:34:13;;;;;;;4.53;1.60;;;;;;;22.33;34.25;95564.50;5029196;28;20121;-64
2022/12/25 10:36:39;;;;;;;3.40;1.50;;;;;;;21.52;35.63;95529.41;5045257;28;20538;-63
2022/12/25 10:39:04;;;;;;;5.22;1.48;;;;;;;21.92;36.42;95583.53;5032363;28;20041;-63
2022/12/25 10:41:48;;;;;;;2.50;1.00;;;;;;;22.10;35.80;95562.84;5060886;28;20492;-62
2022/12/25 10:44:19;;;;;;;3.90;1.13;;;;;;;21.68;35.91;95474.41;5062944;28;20105;-63
2022/12/25 10:46:47;;;;;;;2.53;1.10;;;;;;;22.15;35.24;95570.31;5041779;28;20518;-64
2022/12/25 10:49:14;;;;;;;3.72;1.05;;;;;;;22.25;35.02;95563.44;5003139;28;20064;-65
2022/12/25 10:51:39;;;;;;;6.40;1.30;;;;;;;22.47;34.36;95574.44;5040353;28;20512;-67
2022/12/25 10:54:27;;;;;;;2.95;1.00;;;;;;;22.64;34.64;95556.91;5044210;28;20052;-65
2022/12/25 10:56:53;;;;;;;2.90;1.08;;;;;;;22.93;34.60;95573.59;5038368;28;20148;-62
2022/12/25 10:59:18;;;;;;;4.15;1.35;;;;;;;23.04;34.57;95551.09;5042619;28;20153;-63
2022/12/25 11:01:44;;;;;;;4.10;0.95;;;;;;;23.18;33.63;95556.28;5038067;28;20098;-62
2022/12/25 11:04:27;;;;;;;2.95;1.30;;;;;;;23.09;34.05;95559.28;5034953;28;20777;-62
2022/12/25 11:07:25;;;;;;;2.03;1.08;;;;;;;22.74;34.41;95467.59;5025983;28;20067;-63
2022/12/25 11:09:55;;;;;;;2.83;1.13;;;;;;;23.18;34.39;95539.94;5013394;28;20051;-63
2022/12/25 11:12:28;;;;;;;2.72;1.50;;;;;;;22.67;34.42;95454.47;5008709;28;20044;-65
2022/12/25 11:14:55;;;;;;;3.85;1.60;;;;;;;23.63;33.79;95557.75;5021612;28;20045;-63
2022/12/25 11:17:23;;;;;;;3.08;1.38;;;;;;;23.03;34.16;95487.69;5019450;28;20032;-64
2022/12/25 11:19:59;;;;;;;3.78;0.93;;;;;;;23.77;34.27;95551.34;5053721;28;20060;-65
2022/12/25 11:22:24;;;;;;;4.30;1.50;;;;;;;23.84;34.86;95550.81;5041806;28;20051;-62
2022/12/25 11:24:50;;;;;;;4.28;1.30;;;;;;;24.10;35.08;95558.19;5059825;28;20139;-60
2022/12/25 11:27:24;;;;;;;4.15;1.40;;;;;;;24.00;34.98;95559.69;5048483;28;20126;-61
2022/12/25 11:30:00;;;;;;;5.35;1.92;;;;;;;24.03;35.04;95557.97;5034931;28;20362;-60
2022/12/25 11:32:29;;;;;;;6.60;1.60;;;;;;;24.03;35.57;95558.69;5008220;28;20120;-61
2022/12/25 11:34:55;;;;;;;4.30;1.40;;;;;;;23.42;33.95;95472.03;5023958;28;20041;-61
2022/12/25 11:37:47;;;;;;;4.85;1.40;;;;;;;23.55;34.18;95459.38;5025775;28;20052;-62
2022/12/25 11:40:43;;;;;;;4.28;1.90;;;;;;;24.14;34.76;95566.88;5024271;28;20041;-60
2022/12/25 11:43:17;;;;;;;6.82;1.40;;;;;;;23.85;34.72;95514.84;5009370;28;20084;-63
2022/12/25 11:45:58;;;;;;;6.85;1.50;;;;;;;24.53;34.49;95570.25;5025050;28;20179;-62
2022/12/25 11:48:35;;;;;;;4.57;1.73;;;;;;;24.30;35.17;95538.03;5025697;28;20123;-63
2022/12/25 11:51:01;;;;;;;4.22;1.70;;;;;;;24.42;35.10;95551.16;5042228;28;20049;-63
2022/12/25 11:53:36;;;;;;;4.13;1.50;;;;;;;24.50;34.56;95563.06;5024792;28;20033;-62
2022/12/25 11:56:05;;;;;;;5.53;1.70;;;;;;;24.32;34.77;95566.31;5032079;28;20466;-64
2022/12/25 11:59:00;;;;;;;3.95;1.70;;;;;;;24.49;34.85;95561.56;5047766;28;20461;-63
2022/12/25 12:01:32;;;;;;;5.47;1.52;;;;;;;24.54;34.23;95558.06;5023745;28;20132;-62
2022/12/25 12:03:59;;;;;;;4.13;1.40;;;;;;;24.46;34.12;95529.81;5023757;28;20052;-63
2022/12/25 12:06:29;;;;;;;3.40;1.23;;;;;;;24.04;33.27;95475.63;4991642;28;20546;-62
2022/12/25 12:09:26;;;;;;;2.97;1.40;;;;;;;24.22;33.91;95556.91;5020153;28;20052;-63
2022/12/25 12:12:06;;;;;;;4.72;1.45;;;;;;;24.34;33.60;95558.38;5004057;28;20197;-62
2022/12/25 12:14:57;;;;;;;2.83;1.40;;;;;;;24.51;33.07;95564.53;5014718;28;20029;-62
2022/12/25 12:17:23;;;;;;;3.53;1.42;;;;;;;24.12;32.68;95479.28;5036157;28;20032;-62
2022/12/25 12:19:49;;;;;;;3.33;1.58;;;;;;;24.66;33.63;95543.09;5053625;28;20452;-62
2022/12/25 12:22:20;;;;;;;4.50;1.50;;;;;;;24.77;33.25;95543.03;5027869;28;20491;-62
2022/12/25 12:24:46;;;;;;;3.97;1.60;;;;;;;24.79;32.29;95532.34;5028356;28;20067;-61
2022/12/25 12:27:22;;;;;;;3.78;1.38;;;;;;;24.90;32.79;95557.59;5027119;28;20126;-62
2022/12/25 12:29:49;;;;;;;3.30;1.60;;;;;;;24.80;32.84;95566.59;5017601;28;20127;-63
2022/12/25 12:32:44;;;;;;;3.75;1.40;;;;;;;25.07;32.68;95561.03;5011913;28;20513;-61
2022/12/25 12:35:19;;;;;;;5.63;1.48;;;;;;;24.49;33.21;95496.03;5026978;28;20076;-60
2022/12/25 12:37:46;;;;;;;7.45;1.70;;;;;;;24.56;32.90;95484.56;5027361;28;21649;-62
2022/12/25 12:40:54;;;;;;;6.63;2.08;;;;;;;25.21;33.12;95571.59;5025767;28;20520;-64
2022/12/25 12:43:30;;;;;;;4.72;1.80;;;;;;;25.34;32.69;95575.22;4991714;28;20585;-62
2022/12/25 12:46:05;;;;;;;3.15;1.70;;;;;;;25.07;31.91;95550.09;5039335;28;20131;-62
2022/12/25 12:48:37;;;;;;;3.13;1.40;;;;;;;25.24;32.23;95570.56;5065036;28;20056;-65
2022/12/25 12:51:06;;;;;;;3.38;1.60;;;;;;;25.23;32.69;95569.09;5047816;28;20044;-61
2022/12/25 12:53:32;;;;;;;2.35;1.50;;;;;;;25.30;32.21;95595.88;5064715;28;20571;-64
2022/12/25 12:56:17;;;;;;;3.63;1.40;;;;;;;24.93;31.34;95583.91;5012056;28;20116;-60
2022/12/25 12:58:49;;;;;;;4.97;1.42;;;;;;;25.13;31.87;95581.59;5032939;28;20068;-61
2022/12/25 13:01:20;;;;;;;5.03;1.60;;;;;;;25.21;32.23;95579.78;5027961;28;20055;-60
2022/12/25 13:04:27;;;;;;;4.40;1.63;;;;;;;24.59;32.09;95483.56;5028973;28;20123;-61
2022/12/25 13:07:01;;;;;;;4.03;1.73;;;;;;;25.29;31.99;95578.00;4924690;28;20047;-62
2022/12/25 13:09:45;;;;;;;3.97;1.75;;;;;;;25.36;30.42;95566.50;5049128;28;20075;-62
2022/12/25 13:12:10;;;;;;;2.97;1.55;;;;;;;25.11;30.39;95584.09;5059249;28;20052;-63
2022/12/25 13:14:36;;;;;;;6.22;1.73;;;;;;;25.20;32.19;95575.59;5045920;28;20571;-63
2022/12/25 13:17:02;;;;;;;7.40;2.17;;;;;;;25.26;31.97;95587.22;5064063;28;20028;-63
2022/12/25 13:19:28;;;;;;;5.70;2.50;;;;;;;25.03;30.65;95577.66;5027799;28;20463;-63
2022/12/25 13:21:57;;;;;;;4.50;2.00;;;;;;;25.06;29.92;95575.94;5063672;28;20041;-63
2022/12/25 13:24:31;;;;;;;6.95;2.00;;;;;;;25.08;29.83;95571.44;5045433;28;20049;-64